Time;durP1;ratioP1;P1;durP2;ratioP2;P2;SDS_P1;SDS_P2;PMS_P1;PMS_P2;Temp;Humidity;BMP_temperature;BMP_pressure;BME280_temperature;BME280_humidity;BME280_pressure;Samples;Min_cycle;Max_cycle;Signal;HPM_P1;HPM_P2
2023/05/09 00:02:27;;;;;;;5.40;4.93;;;;;;;17.28;65.13;99226.25;4938411;28;40060;-78
2023/05/09 00:04:55;;;;;;;4.93;4.53;;;;;;;17.19;64.70;99210.94;4938130;28;40977;-81
2023/05/09 00:07:23;;;;;;;5.03;4.63;;;;;;;17.09;64.90;99210.88;4937941;28;42748;-78
2023/05/09 00:09:51;;;;;;;5.50;5.00;;;;;;;16.92;65.05;99202.56;4922132;28;41343;-76
2023/05/09 00:12:18;;;;;;;5.40;4.90;;;;;;;16.90;65.23;99210.69;4955218;28;39973;-75
2023/05/09 00:14:49;;;;;;;5.90;5.40;;;;;;;16.78;64.81;99212.56;4954986;28;42125;-82
2023/05/09 00:17:17;;;;;;;5.73;5.23;;;;;;;16.68;65.07;99210.78;4921726;28;42680;-81
2023/05/09 00:19:46;;;;;;;5.50;5.00;;;;;;;16.56;65.04;99207.25;4955211;28;42403;-76
2023/05/09 00:22:14;;;;;;;5.70;5.20;;;;;;;16.46;65.07;99206.28;4921772;28;39296;-83
2023/05/09 00:24:41;;;;;;;5.10;4.70;;;;;;;16.36;65.03;99210.66;4955101;28;41684;-83
2023/05/09 00:27:09;;;;;;;5.20;4.77;;;;;;;16.26;65.15;99209.72;4937742;28;43055;-79
2023/05/09 00:29:36;;;;;;;4.73;4.40;;;;;;;16.16;65.16;99209.59;4955149;28;43069;-81
2023/05/09 00:32:05;;;;;;;4.83;4.43;;;;;;;16.08;65.39;99209.34;4937831;28;40081;-76
2023/05/09 00:34:33;;;;;;;5.07;4.67;;;;;;;16.00;65.24;99207.28;4954859;28;42572;-82
2023/05/09 00:37:02;;;;;;;5.40;4.90;;;;;;;15.91;65.39;99210.69;4921550;28;42935;-79
2023/05/09 00:39:29;;;;;;;5.73;5.10;;;;;;;15.87;65.75;99209.22;4937416;28;42444;-75
2023/05/09 00:41:57;;;;;;;5.03;4.63;;;;;;;15.80;66.21;99195.53;4954847;28;40631;-78
2023/05/09 00:44:25;;;;;;;7.23;6.57;;;;;;;15.80;68.42;99181.31;4920242;28;41553;-79
2023/05/09 00:46:52;;;;;;;7.73;7.13;;;;;;;15.76;69.73;99174.50;4937368;28;41851;-78
2023/05/09 00:49:20;;;;;;;8.03;7.20;;;;;;;15.72;70.18;99163.22;4937582;28;41262;-76
2023/05/09 00:51:49;;;;;;;8.10;7.23;;;;;;;15.73;69.76;99164.06;4937176;28;40292;-78
2023/05/09 00:54:18;;;;;;;8.00;7.20;;;;;;;15.71;69.67;99160.66;4954365;28;42568;-82
2023/05/09 00:56:46;;;;;;;8.30;7.60;;;;;;;15.61;69.46;99139.19;4937412;28;43786;-82
2023/05/09 00:59:14;;;;;;;8.10;7.40;;;;;;;15.74;69.37;99157.75;4954350;28;42176;-78
2023/05/09 01:01:41;;;;;;;6.90;6.17;;;;;;;15.77;68.87;99155.69;4937275;28;39995;-78
2023/05/09 01:04:10;;;;;;;8.53;7.73;;;;;;;15.77;69.20;99160.19;4953193;28;42438;-79
2023/05/09 01:06:45;;;;;;;7.43;6.73;;;;;;;15.37;68.87;99099.22;4936901;28;41797;-81
2023/05/09 01:09:19;;;;;;;6.90;6.20;;;;;;;15.79;68.47;99163.59;4921537;28;41518;-78
2023/05/09 01:11:55;;;;;;;6.93;6.30;;;;;;;15.76;68.44;99163.81;4921298;28;39173;-79
2023/05/09 01:14:33;;;;;;;6.43;5.83;;;;;;;15.74;67.93;99165.75;4921117;28;40761;-81
2023/05/09 01:17:09;;;;;;;6.73;6.20;;;;;;;15.72;67.82;99160.53;4921331;28;42066;-77
2023/05/09 01:19:55;;;;;;;6.23;5.63;;;;;;;15.71;67.44;99172.19;4936946;28;42312;-78
2023/05/09 01:22:28;;;;;;;5.97;5.37;;;;;;;15.68;67.70;99160.94;4920744;28;40031;-79
2023/05/09 01:25:20;;;;;;;5.50;5.00;;;;;;;15.68;67.28;99160.94;4934246;28;41711;-82
2023/05/09 01:31:23;;;;;;;5.17;4.77;;;;;;;15.63;67.41;99157.75;4951016;28;43232;-82
2023/05/09 01:33:56;;;;;;;5.33;4.83;;;;;;;15.66;67.28;99157.53;4936815;28;40907;-77
2023/05/09 01:36:29;;;;;;;5.43;4.93;;;;;;;15.70;66.98;99159.00;4920966;28;41906;-78
2023/05/09 01:38:58;;;;;;;5.50;5.00;;;;;;;15.72;66.70;99157.03;4934011;28;43525;-78
2023/05/09 01:41:30;;;;;;;6.40;5.80;;;;;;;15.74;66.78;99161.28;4953822;28;42198;-79
2023/05/09 01:44:00;;;;;;;5.37;4.87;;;;;;;15.76;66.71;99159.34;4934050;28;41007;-79
2023/05/09 01:46:30;;;;;;;5.10;4.70;;;;;;;15.79;66.61;99152.91;4936671;28;42380;-78
2023/05/09 01:48:59;;;;;;;5.27;4.87;;;;;;;15.78;66.40;99152.06;4936645;28;43710;-78
2023/05/09 01:51:29;;;;;;;5.73;5.23;;;;;;;15.77;66.33;99153.03;4920709;28;41251;-80
2023/05/09 01:53:58;;;;;;;6.00;5.50;;;;;;;15.76;66.58;99153.16;4936706;28;39865;-76
2023/05/09 01:56:27;;;;;;;6.20;5.70;;;;;;;15.75;66.39;99152.28;4919824;28;40989;-81
2023/05/09 01:58:56;;;;;;;6.70;6.13;;;;;;;15.72;66.88;99151.69;4920354;28;41981;-79
2023/05/09 02:01:25;;;;;;;6.20;5.70;;;;;;;15.67;66.58;99148.53;4920678;28;43354;-79
2023/05/09 02:03:54;;;;;;;6.27;5.73;;;;;;;15.63;66.89;99147.91;4936699;28;40886;-82
2023/05/09 02:06:24;;;;;;;5.87;5.37;;;;;;;15.38;67.01;99116.06;4920541;28;41722;-79
2023/05/09 02:08:51;;;;;;;6.33;5.77;;;;;;;15.49;66.91;99139.25;4952336;28;42689;-77
2023/05/09 02:11:20;;;;;;;6.50;5.90;;;;;;;15.34;67.03;99135.94;4936195;28;42040;-80
2023/05/09 02:13:47;;;;;;;6.43;5.83;;;;;;;15.35;66.77;99143.84;4920613;28;38752;-81
2023/05/09 02:16:15;;;;;;;5.70;5.23;;;;;;;15.27;66.87;99146.25;4920382;28;41171;-78
2023/05/09 02:18:43;;;;;;;5.03;4.63;;;;;;;15.21;66.79;99146.72;4953068;28;42707;-76
2023/05/09 02:21:12;;;;;;;6.07;5.57;;;;;;;15.16;66.93;99143.56;4953074;28;43195;-77
2023/05/09 02:23:39;;;;;;;5.63;5.20;;;;;;;15.12;66.78;99142.09;4920033;28;40660;-81
2023/05/09 02:26:08;;;;;;;6.43;5.83;;;;;;;15.07;67.42;99133.63;4936045;28;41722;-82
2023/05/09 02:28:38;;;;;;;6.80;6.20;;;;;;;15.02;67.25;99139.28;4920082;28;43137;-82
2023/05/09 02:31:08;;;;;;;5.70;4.90;;;;;;;14.86;67.47;99120.09;4936301;28;42292;-81
2023/05/09 02:33:38;;;;;;;5.93;5.43;;;;;;;14.93;67.48;99136.47;4936178;28;40940;-76
2023/05/09 02:36:07;;;;;;;6.07;5.47;;;;;;;14.89;67.60;99137.66;4935909;28;42472;-78
2023/05/09 02:38:36;;;;;;;5.93;5.43;;;;;;;14.85;67.71;99134.38;4919809;28;44935;-78
2023/05/09 02:41:03;;;;;;;6.63;6.03;;;;;;;14.81;67.28;99137.41;4936187;28;42168;-81
2023/05/09 02:43:31;;;;;;;7.10;5.93;;;;;;;14.77;67.41;99127.94;4920034;28;39940;-79
2023/05/09 02:45:58;;;;;;;5.97;5.47;;;;;;;14.73;67.30;99136.16;4919641;28;41710;-77
2023/05/09 02:48:27;;;;;;;5.73;5.27;;;;;;;14.69;67.37;99129.38;4920062;28;42785;-80
2023/05/09 02:50:56;;;;;;;6.63;6.03;;;;;;;14.66;67.45;99129.59;4935982;28;43266;-78
2023/05/09 02:53:23;;;;;;;6.20;5.70;;;;;;;14.58;67.58;99121.34;4935547;28;38982;-77
2023/05/09 02:55:52;;;;;;;6.00;5.50;;;;;;;14.60;67.90;99123.84;4919764;28;40765;-81
2023/05/09 02:58:20;;;;;;;6.07;5.57;;;;;;;14.57;67.72;99124.97;4935638;28;42952;-77
2023/05/09 03:00:48;;;;;;;6.10;5.53;;;;;;;14.55;67.75;99118.88;4952935;28;42218;-78
2023/05/09 03:03:16;;;;;;;6.03;5.43;;;;;;;14.53;68.06;99123.47;4935658;28;39935;-78
2023/05/09 03:05:44;;;;;;;5.70;5.30;;;;;;;14.53;68.27;99126.13;4919575;28;40540;-77
2023/05/09 03:08:11;;;;;;;6.80;6.10;;;;;;;14.49;68.48;99111.31;4920682;28;42804;-78
2023/05/09 03:10:39;;;;;;;6.60;6.00;;;;;;;14.44;68.67;99100.19;4922866;28;42239;-79
2023/05/09 03:13:09;;;;;;;6.20;5.60;;;;;;;14.53;68.82;99111.97;4939103;28;40695;-80
2023/05/09 03:15:36;;;;;;;6.50;5.90;;;;;;;14.51;68.75;99109.41;4938964;28;41713;-80
2023/05/09 03:18:05;;;;;;;5.47;5.07;;;;;;;14.51;68.46;99112.06;4922924;28;41676;-78
2023/05/09 03:20:32;;;;;;;6.23;5.73;;;;;;;14.49;68.49;99108.66;4938869;28;41446;-80
2023/05/09 03:23:00;;;;;;;5.73;5.27;;;;;;;14.45;68.24;99103.69;4954925;28;39997;-76
2023/05/09 03:25:27;;;;;;;6.13;5.63;;;;;;;14.45;68.46;99104.56;4938898;28;42658;-77
2023/05/09 03:27:54;;;;;;;5.87;5.37;;;;;;;14.43;68.24;99106.47;4954919;28;43762;-76
2023/05/09 03:30:25;;;;;;;6.17;5.67;;;;;;;14.41;68.51;99097.75;4938817;28;41669;-79
2023/05/09 03:32:52;;;;;;;6.70;6.10;;;;;;;14.41;68.82;99100.41;4938506;28;39963;-76
2023/05/09 03:35:20;;;;;;;6.60;6.00;;;;;;;14.41;68.77;99102.22;4938057;28;40706;-75
2023/05/09 03:37:47;;;;;;;5.97;5.47;;;;;;;14.41;68.56;99097.75;4954800;28;42920;-79
2023/05/09 03:40:15;;;;;;;5.83;5.37;;;;;;;14.33;68.28;99084.97;4954521;28;42157;-77
2023/05/09 03:42:50;;;;;;;6.47;5.87;;;;;;;14.32;68.43;99071.75;4937846;28;40011;-80
2023/05/09 03:45:17;;;;;;;6.20;5.70;;;;;;;14.47;68.66;99096.41;4938691;28;42072;-74
2023/05/09 03:47:48;;;;;;;6.40;5.80;;;;;;;14.49;68.71;99090.00;4954468;28;43537;-78
2023/05/09 03:50:16;;;;;;;5.93;5.43;;;;;;;14.52;68.48;99089.78;4938492;28;42303;-78
2023/05/09 03:52:44;;;;;;;7.00;6.40;;;;;;;14.55;68.39;99094.91;4938556;28;39936;-75
2023/05/09 03:55:14;;;;;;;6.57;6.07;;;;;;;14.57;68.23;99092.97;4938547;28;42593;-78
2023/05/09 03:57:41;;;;;;;6.80;6.20;;;;;;;14.58;68.43;99094.69;4921910;28;44195;-74
2023/05/09 04:00:10;;;;;;;6.50;5.90;;;;;;;14.58;68.32;99085.81;4938168;28;42492;-79
2023/05/09 04:02:51;;;;;;;6.27;5.73;;;;;;;14.59;68.74;99085.69;4922318;28;40330;-75
2023/05/09 04:05:29;;;;;;;6.10;5.60;;;;;;;14.63;68.21;99091.66;4935068;28;42591;-77
2023/05/09 04:07:56;;;;;;;5.63;5.13;;;;;;;14.66;68.67;99083.41;4937860;28;42771;-77
2023/05/09 04:10:24;;;;;;;6.17;5.67;;;;;;;14.71;68.77;99081.28;4938318;28;43254;-76
2023/05/09 04:12:52;;;;;;;7.60;7.00;;;;;;;14.76;69.00;99086.25;4937836;28;39020;-77
2023/05/09 04:15:20;;;;;;;7.80;7.17;;;;;;;14.80;69.53;99077.06;4938297;28;42796;-76
2023/05/09 04:17:47;;;;;;;8.47;7.73;;;;;;;14.86;69.61;99081.91;4937902;28;43608;-76
2023/05/09 04:20:16;;;;;;;7.77;7.17;;;;;;;14.92;69.55;99076.09;4937377;28;41114;-75
2023/05/09 04:22:44;;;;;;;8.40;7.63;;;;;;;14.98;69.54;99076.47;4937829;28;39795;-81
2023/05/09 04:25:13;;;;;;;9.20;8.40;;;;;;;14.98;69.42;99064.94;4937995;28;41596;-78
2023/05/09 04:27:41;;;;;;;9.50;8.50;;;;;;;15.13;68.98;99079.78;4921403;28;43081;-75
2023/05/09 04:30:10;;;;;;;8.43;7.73;;;;;;;14.97;68.99;99052.59;4937932;28;43164;-74
2023/05/09 04:32:38;;;;;;;9.73;8.67;;;;;;;15.19;69.16;99079.31;4937611;28;39991;-76
2023/05/09 04:35:07;;;;;;;8.63;7.87;;;;;;;15.24;68.73;99093.13;4937694;28;42126;-78
2023/05/09 04:37:41;;;;;;;9.77;8.87;;;;;;;15.28;69.36;99094.59;4937387;28;41935;-77
2023/05/09 04:40:10;;;;;;;8.60;7.80;;;;;;;15.30;68.94;99090.00;4921556;28;42362;-78
2023/05/09 04:42:43;;;;;;;8.20;7.47;;;;;;;15.38;68.67;99084.91;4936101;28;40033;-77
2023/05/09 04:45:12;;;;;;;7.40;6.80;;;;;;;15.45;68.81;99086.09;4937143;28;40644;-78
2023/05/09 04:47:39;;;;;;;7.93;7.27;;;;;;;15.57;68.20;99083.50;4921243;28;42720;-79
2023/05/09 04:50:08;;;;;;;7.57;6.87;;;;;;;15.66;67.94;99086.28;4937018;28;42224;-76
2023/05/09 04:52:35;;;;;;;8.53;7.63;;;;;;;15.79;68.13;99088.81;4937026;28;40839;-79
2023/05/09 04:55:05;;;;;;;7.10;6.47;;;;;;;15.86;67.87;99084.66;4921164;28;42165;-76
2023/05/09 04:57:38;;;;;;;7.90;7.20;;;;;;;15.99;67.67;99088.06;4951512;28;43556;-78
2023/05/09 05:00:10;;;;;;;8.60;7.70;;;;;;;16.08;67.63;99089.13;4920557;28;41222;-76
2023/05/09 05:02:38;;;;;;;7.73;7.10;;;;;;;16.17;67.65;99089.25;4935694;28;40681;-77
2023/05/09 05:05:07;;;;;;;8.60;7.73;;;;;;;16.30;67.58;99086.41;4921301;28;40814;-78
2023/05/09 05:07:38;;;;;;;10.83;9.47;;;;;;;16.36;67.02;99087.72;4921178;28;41585;-79
2023/05/09 05:10:08;;;;;;;8.90;8.10;;;;;;;16.37;66.99;99073.38;4937110;28;43161;-78
2023/05/09 05:12:37;;;;;;;8.20;7.50;;;;;;;16.51;66.94;99083.78;4920688;28;39151;-75
2023/05/09 05:15:09;;;;;;;7.97;7.27;;;;;;;16.54;66.67;99075.50;4933882;28;41764;-77
2023/05/09 05:17:37;;;;;;;8.23;7.43;;;;;;;16.72;66.35;99083.84;4936509;28;42874;-78
2023/05/09 05:20:09;;;;;;;9.20;8.40;;;;;;;16.79;66.46;99079.69;4921024;28;41046;-75
2023/05/09 05:22:38;;;;;;;9.13;8.23;;;;;;;16.93;66.19;99081.19;4920778;28;38769;-76
2023/05/09 05:25:08;;;;;;;10.47;8.87;;;;;;;17.05;65.96;99093.53;4952877;28;42948;-77
2023/05/09 05:27:41;;;;;;;10.37;8.87;;;;;;;17.18;65.74;99094.19;4920576;28;41952;-77
2023/05/09 05:30:14;;;;;;;8.67;7.87;;;;;;;17.34;65.79;99091.00;4936144;28;42493;-77
2023/05/09 05:32:42;;;;;;;8.80;8.00;;;;;;;17.50;65.89;99091.38;4935010;28;40683;-75
2023/05/09 05:35:11;;;;;;;8.93;8.03;;;;;;;17.67;65.48;99092.63;4936353;28;42686;-78
2023/05/09 05:37:39;;;;;;;9.90;8.83;;;;;;;17.82;65.16;99088.56;4935876;28;42542;-76
2023/05/09 05:40:10;;;;;;;10.50;9.50;;;;;;;17.92;63.57;99094.84;4936264;28;42219;-76
2023/05/09 05:42:40;;;;;;;11.87;10.70;;;;;;;17.96;61.72;99098.91;4920630;28;41211;-75
2023/05/09 05:45:09;;;;;;;11.33;10.23;;;;;;;17.95;61.09;99081.13;4920491;28;41149;-78
2023/05/09 05:47:40;;;;;;;11.40;10.40;;;;;;;18.12;60.42;99104.59;4935032;28;42725;-83
2023/05/09 05:50:10;;;;;;;11.07;10.07;;;;;;;18.26;59.57;99101.53;4934311;28;43304;-82
2023/05/09 05:52:38;;;;;;;10.93;9.93;;;;;;;18.46;58.27;99102.41;4916549;28;40767;-81
2023/05/09 05:55:07;;;;;;;12.47;10.17;;;;;;;18.63;57.75;99104.44;4935800;28;42511;-79
2023/05/09 05:57:36;;;;;;;11.83;10.53;;;;;;;18.73;57.00;99109.78;4948506;28;43472;-77
2023/05/09 06:00:09;;;;;;;10.30;9.40;;;;;;;18.71;57.67;99095.66;4969356;28;42210;-81
2023/05/09 06:02:42;;;;;;;9.60;8.70;;;;;;;18.76;57.38;99088.06;4961220;28;39326;-81
2023/05/09 06:05:11;;;;;;;10.57;9.47;;;;;;;18.83;56.78;99088.31;4939620;28;40858;-82
2023/05/09 06:07:40;;;;;;;10.80;9.70;;;;;;;18.83;56.08;99094.53;4939419;28;42535;-81
2023/05/09 06:10:08;;;;;;;10.27;9.23;;;;;;;18.71;55.56;99101.03;4939438;28;40904;-84
2023/05/09 06:12:38;;;;;;;10.77;9.70;;;;;;;18.71;54.85;99101.03;4936383;28;39062;-79
2023/05/09 06:15:08;;;;;;;9.43;8.50;;;;;;;18.70;54.53;99115.44;4920617;28;41012;-81
2023/05/09 06:17:47;;;;;;;9.50;8.60;;;;;;;18.57;53.76;99114.84;4929827;28;41959;-81
2023/05/09 06:20:14;;;;;;;9.07;8.20;;;;;;;18.45;53.52;99116.78;4939348;28;42509;-81
2023/05/09 06:22:42;;;;;;;8.80;8.00;;;;;;;18.40;53.49;99124.44;4923631;28;38802;-75
2023/05/09 06:25:10;;;;;;;7.83;7.13;;;;;;;18.22;53.50;99094.75;4939358;28;41334;-77
2023/05/09 06:27:39;;;;;;;9.40;8.17;;;;;;;18.38;52.67;99121.03;4944722;28;43523;-77
2023/05/09 06:30:08;;;;;;;8.37;7.50;;;;;;;18.58;52.64;99121.94;4935621;28;41559;-78
2023/05/09 06:32:36;;;;;;;7.63;6.83;;;;;;;19.00;51.84;99120.66;4952950;28;40815;-80
2023/05/09 06:35:04;;;;;;;7.07;6.17;;;;;;;19.33;49.68;99130.06;4936039;28;40473;-77
2023/05/09 06:37:33;;;;;;;6.87;6.27;;;;;;;19.68;49.37;99128.59;4935210;28;41756;-79
2023/05/09 06:40:01;;;;;;;7.57;6.27;;;;;;;20.04;49.71;99119.66;4920101;28;42649;-79
2023/05/09 06:42:28;;;;;;;7.40;6.70;;;;;;;20.42;47.51;99140.16;4952564;28;39930;-79
2023/05/09 06:44:58;;;;;;;6.30;5.70;;;;;;;21.13;47.69;99124.03;4936111;28;42007;-78
2023/05/09 06:47:25;;;;;;;7.30;6.60;;;;;;;21.73;44.66;99150.25;4943353;28;42468;-78
2023/05/09 06:49:53;;;;;;;7.00;6.30;;;;;;;22.10;42.84;99155.34;4954679;28;41625;-80
2023/05/09 06:52:21;;;;;;;6.63;6.03;;;;;;;22.45;42.18;99155.16;4947012;28;40170;-79
2023/05/09 06:54:49;;;;;;;6.50;5.90;;;;;;;22.51;40.93;99159.88;4935808;28;42487;-84
2023/05/09 06:57:17;;;;;;;5.63;5.13;;;;;;;22.39;41.69;99145.00;4922399;28;41670;-80
2023/05/09 06:59:45;;;;;;;5.87;5.37;;;;;;;22.38;40.97;99153.25;4952382;28;42391;-79
2023/05/09 07:02:14;;;;;;;5.70;5.20;;;;;;;22.36;41.64;99137.25;4958529;28;39721;-80
2023/05/09 07:04:42;;;;;;;5.83;5.33;;;;;;;22.39;41.47;99145.00;4938720;28;40835;-80
2023/05/09 07:07:09;;;;;;;5.60;5.10;;;;;;;22.39;42.24;99122.56;4971562;28;43679;-81
2023/05/09 07:09:37;;;;;;;6.17;5.57;;;;;;;22.51;41.77;99138.28;4954982;28;41065;-82
2023/05/09 07:12:05;;;;;;;5.60;5.00;;;;;;;22.59;41.64;99129.38;4949287;28;39850;-81
2023/05/09 07:14:33;;;;;;;6.00;5.50;;;;;;;22.57;40.13;99142.19;4935425;28;40852;-80
2023/05/09 07:17:01;;;;;;;7.07;5.60;;;;;;;22.64;40.80;99131.56;4934671;28;41533;-82
2023/05/09 07:19:30;;;;;;;5.70;5.23;;;;;;;22.89;41.33;99126.06;4935436;28;41505;-79
2023/05/09 07:21:57;;;;;;;6.33;5.60;;;;;;;23.34;41.88;99121.19;4939093;28;40986;-79
2023/05/09 07:24:25;;;;;;;5.50;4.97;;;;;;;23.87;41.42;99117.84;4938773;28;40794;-79
2023/05/09 07:26:53;;;;;;;5.30;4.80;;;;;;;24.62;40.34;99110.94;4953816;28;42810;-80
2023/05/09 07:29:21;;;;;;;5.17;4.77;;;;;;;25.16;38.07;99129.03;4954398;28;43271;-80
2023/05/09 07:31:48;;;;;;;5.33;4.53;;;;;;;25.05;36.78;99128.44;4938339;28;39249;-82
2023/05/09 07:34:18;;;;;;;5.10;4.60;;;;;;;25.18;36.75;99127.84;4971913;28;41824;-83
2023/05/09 07:36:47;;;;;;;5.43;4.93;;;;;;;25.38;35.67;99128.16;4951180;28;42920;-81
2023/05/09 07:39:15;;;;;;;5.07;4.57;;;;;;;25.45;36.26;99128.28;4935738;28;43092;-83
2023/05/09 07:41:43;;;;;;;5.73;5.23;;;;;;;25.44;34.98;99132.84;4935026;28;40188;-85
2023/05/09 07:44:11;;;;;;;5.50;5.03;;;;;;;25.26;35.23;99114.19;4935150;28;41809;-86
2023/05/09 07:46:40;;;;;;;5.57;5.07;;;;;;;25.38;35.06;99126.28;4936675;28;41446;-83
2023/05/09 07:49:08;;;;;;;4.77;4.37;;;;;;;25.46;34.78;99124.53;4938477;28;41381;-81
2023/05/09 07:51:36;;;;;;;4.47;3.73;;;;;;;25.58;35.85;99106.78;4969760;28;40834;-86
2023/05/09 07:54:05;;;;;;;5.27;4.87;;;;;;;25.79;34.51;99119.66;4920178;28;40750;-87
2023/05/09 07:56:32;;;;;;;5.00;4.60;;;;;;;25.84;34.06;99128.06;4938972;28;41758;-86
2023/05/09 07:59:00;;;;;;;6.43;4.93;;;;;;;25.90;35.71;99098.31;4957096;28;42214;-79
2023/05/09 08:01:28;;;;;;;4.87;3.60;;;;;;;25.97;34.13;99115.50;4956867;28;39374;-82
2023/05/09 08:03:56;;;;;;;5.70;4.37;;;;;;;26.26;34.16;99098.34;4938279;28;40912;-86
2023/05/09 08:06:23;;;;;;;4.40;4.00;;;;;;;26.91;33.50;99111.03;4922245;28;41713;-79
2023/05/09 08:08:51;;;;;;;4.60;4.20;;;;;;;27.65;32.06;99125.09;4956665;28;44770;-83
2023/05/09 08:11:20;;;;;;;4.67;4.27;;;;;;;28.36;30.23;99128.47;4941086;28;40236;-78
2023/05/09 08:13:47;;;;;;;4.93;4.53;;;;;;;28.58;30.02;99135.47;4956954;28;40831;-80
2023/05/09 08:16:16;;;;;;;5.70;4.07;;;;;;;28.80;30.14;99114.41;4941064;28;41540;-81
2023/05/09 08:18:44;;;;;;;4.33;3.97;;;;;;;28.95;29.06;99128.66;4937242;28;42388;-81
2023/05/09 08:21:12;;;;;;;4.50;4.20;;;;;;;29.16;29.75;99110.47;4922183;28;39214;-82
2023/05/09 08:23:40;;;;;;;6.27;4.53;;;;;;;29.19;29.19;99119.03;4973060;28;41938;-78
2023/05/09 08:26:08;;;;;;;4.73;4.33;;;;;;;28.71;28.66;99090.22;4973173;28;42824;-79
2023/05/09 08:28:37;;;;;;;4.50;4.10;;;;;;;28.42;29.90;99094.13;4974184;28;42021;-82
2023/05/09 08:31:04;;;;;;;4.20;3.90;;;;;;;28.29;30.29;99102.25;4957546;28;40222;-82
2023/05/09 08:33:32;;;;;;;5.13;4.63;;;;;;;28.23;30.02;99079.38;4939092;28;40610;-78
2023/05/09 08:36:00;;;;;;;5.07;4.67;;;;;;;28.08;29.07;99100.44;4938009;28;42948;-82
2023/05/09 08:38:28;;;;;;;4.23;3.83;;;;;;;28.03;29.55;99090.16;4970958;28;42072;-81
2023/05/09 08:41:00;;;;;;;4.83;4.43;;;;;;;28.68;29.93;99079.75;4957248;28;40333;-79
2023/05/09 08:43:29;;;;;;;4.20;3.90;;;;;;;29.63;28.62;99082.97;4970849;28;41970;-78
2023/05/09 08:46:00;;;;;;;5.30;4.83;;;;;;;30.21;27.62;99091.22;4956717;28;43740;-78
2023/05/09 08:48:28;;;;;;;4.20;3.80;;;;;;;30.21;28.60;99084.91;4954089;28;43046;-83
2023/05/09 08:50:56;;;;;;;4.47;4.17;;;;;;;29.84;28.23;99079.13;4937691;28;40064;-75
2023/05/09 08:53:25;;;;;;;4.37;3.97;;;;;;;29.57;28.94;99078.34;4952655;28;41610;-79
2023/05/09 08:55:53;;;;;;;4.80;4.30;;;;;;;29.36;28.27;99078.53;4940540;28;43153;-78
2023/05/09 08:58:22;;;;;;;4.37;3.97;;;;;;;29.20;28.72;99076.22;4955788;28;42308;-80
2023/05/09 09:00:50;;;;;;;4.57;3.70;;;;;;;29.08;28.78;99077.91;4940165;28;42301;-80
2023/05/09 09:03:20;;;;;;;5.07;4.50;;;;;;;29.13;28.86;99067.22;4956150;28;40533;-81
2023/05/09 09:05:49;;;;;;;4.17;3.77;;;;;;;29.19;28.34;99072.66;4938826;28;41636;-85
2023/05/09 09:08:18;;;;;;;4.50;4.20;;;;;;;29.14;28.67;99060.72;4925198;28;41209;-84
2023/05/09 09:10:47;;;;;;;4.40;4.00;;;;;;;29.30;28.47;99046.66;4921516;28;38966;-82
2023/05/09 09:13:17;;;;;;;4.63;4.10;;;;;;;29.59;29.15;99032.56;4951168;28;41681;-86
2023/05/09 09:15:47;;;;;;;4.47;3.97;;;;;;;30.39;27.68;99043.22;4956024;28;41555;-78
2023/05/09 09:18:22;;;;;;;4.40;4.00;;;;;;;30.65;27.31;99027.53;4941331;28;41272;-84
2023/05/09 09:20:56;;;;;;;4.50;4.10;;;;;;;30.87;27.03;99030.72;4921292;28;39651;-80
2023/05/09 09:23:26;;;;;;;4.30;3.90;;;;;;;31.35;24.74;99043.81;4966872;28;41544;-83
2023/05/09 09:25:58;;;;;;;3.10;2.90;;;;;;;31.55;24.69;99027.19;4956066;28;43171;-79
2023/05/09 09:28:26;;;;;;;2.70;2.50;;;;;;;31.72;24.93;99040.09;4939759;28;41690;-83
2023/05/09 09:30:55;;;;;;;2.77;2.57;;;;;;;32.23;24.09;99041.63;4957293;28;20227;-79
2023/05/09 09:33:26;;;;;;;6.17;3.20;;;;;;;32.97;20.53;99061.47;4973303;28;42549;-76
2023/05/09 09:35:56;;;;;;;2.27;2.07;;;;;;;33.22;19.32;99072.25;4956195;28;42586;-88
2023/05/09 09:38:25;;;;;;;2.40;2.20;;;;;;;33.19;20.24;99044.19;4939683;28;42179;-82
2023/05/09 09:40:54;;;;;;;2.67;2.00;;;;;;;33.53;21.06;99041.72;4956167;28;41073;-82
2023/05/09 09:43:28;;;;;;;2.40;2.20;;;;;;;33.86;21.57;99035.63;4955433;28;40848;-81
2023/05/09 09:45:57;;;;;;;2.40;2.20;;;;;;;34.61;20.75;99018.19;4955890;28;43173;-79
2023/05/09 09:48:27;;;;;;;3.42;2.28;;;;;;;35.19;19.83;99017.81;4939145;28;42335;-78
2023/05/09 09:50:56;;;;;;;2.33;2.13;;;;;;;35.74;18.54;99031.63;4920622;28;39925;-77
2023/05/09 09:53:29;;;;;;;2.10;1.92;;;;;;;36.18;18.60;99028.91;4936218;28;43158;-80
2023/05/09 09:55:57;;;;;;;4.22;2.60;;;;;;;35.48;18.66;99024.09;4939713;28;42074;-81
2023/05/09 09:58:24;;;;;;;2.80;2.60;;;;;;;34.58;19.58;99017.59;4923068;28;41168;-80
2023/05/09 10:01:05;;;;;;;2.93;2.70;;;;;;;33.74;20.17;98994.41;4952487;28;40982;-79
2023/05/09 10:03:39;;;;;;;3.53;2.93;;;;;;;33.54;20.28;99000.28;4949835;28;42494;-77
2023/05/09 10:06:11;;;;;;;2.70;2.57;;;;;;;33.80;22.43;98971.47;4952880;28;43038;-83
2023/05/09 10:08:38;;;;;;;3.30;3.00;;;;;;;34.03;21.58;98969.72;4936273;28;41204;-79
2023/05/09 10:11:06;;;;;;;5.97;2.63;;;;;;;34.13;21.33;98975.41;4920417;28;40157;-86
2023/05/09 10:13:37;;;;;;;2.67;2.47;;;;;;;34.52;20.77;98963.53;4919610;28;40711;-84
2023/05/09 10:16:06;;;;;;;3.13;2.63;;;;;;;34.78;21.04;98967.59;4953375;28;42465;-81
2023/05/09 10:18:34;;;;;;;4.03;2.93;;;;;;;34.90;20.37;98971.09;4968182;28;42867;-78
2023/05/09 10:21:05;;;;;;;2.70;2.50;;;;;;;35.38;20.79;98952.28;4939222;28;39337;-77
2023/05/09 10:23:37;;;;;;;3.17;2.97;;;;;;;35.54;19.12;98977.06;4938548;28;41130;-81
2023/05/09 10:26:12;;;;;;;2.73;2.43;;;;;;;35.66;19.45;98974.19;4938919;28;41899;-84
2023/05/09 10:28:42;;;;;;;3.00;2.70;;;;;;;35.50;19.36;98942.81;4935356;28;41250;-83
2023/05/09 10:31:15;;;;;;;3.23;2.90;;;;;;;35.75;20.25;98917.53;4935461;28;39705;-78
2023/05/09 10:33:48;;;;;;;2.77;2.53;;;;;;;35.71;19.11;98957.72;4970155;28;42239;-82
2023/05/09 10:36:20;;;;;;;2.53;2.35;;;;;;;35.87;19.38;98943.06;4954490;28;42224;-80
2023/05/09 10:38:48;;;;;;;3.40;2.83;;;;;;;35.89;19.29;98943.63;4953947;28;42161;-84
2023/05/09 10:41:17;;;;;;;3.17;2.77;;;;;;;35.94;18.79;98932.66;4972262;28;40880;-78
2023/05/09 10:43:45;;;;;;;2.90;2.70;;;;;;;35.81;19.13;98940.50;4935982;28;42077;-79
2023/05/09 10:46:14;;;;;;;2.87;2.67;;;;;;;35.21;19.11;98933.88;4935355;28;42165;-77
2023/05/09 10:48:43;;;;;;;2.80;2.60;;;;;;;35.00;20.44;98915.38;4969123;28;41578;-79
2023/05/09 10:51:12;;;;;;;3.43;2.67;;;;;;;35.12;20.49;98902.34;4954693;28;40388;-84
2023/05/09 10:53:46;;;;;;;3.43;2.40;;;;;;;35.17;20.25;98872.13;4970156;28;42534;-79
2023/05/09 10:56:26;;;;;;;3.13;2.60;;;;;;;35.16;19.76;98892.50;4938519;28;41629;-78
2023/05/09 10:58:54;;;;;;;2.60;2.40;;;;;;;35.17;20.81;98894.16;4934050;28;41109;-77
2023/05/09 11:01:33;;;;;;;3.67;2.57;;;;;;;35.01;21.05;98875.75;4919212;28;39913;-79
2023/05/09 11:04:02;;;;;;;3.10;2.50;;;;;;;34.83;22.10;98854.88;4949617;28;41901;-77
2023/05/09 11:06:46;;;;;;;3.10;2.77;;;;;;;34.37;19.66;98882.72;4919416;28;42819;-81
2023/05/09 11:09:27;;;;;;;2.63;2.43;;;;;;;34.30;20.38;98871.84;4938446;28;41443;-78
2023/05/09 11:11:57;;;;;;;2.53;2.17;;;;;;;34.85;22.38;98846.38;4954283;28;39164;-78
2023/05/09 11:14:30;;;;;;;2.60;2.40;;;;;;;35.28;19.76;98862.09;4954498;28;41806;-83
2023/05/09 11:16:59;;;;;;;2.87;2.40;;;;;;;35.39;19.99;98852.88;4938730;28;41709;-80
2023/05/09 11:19:38;;;;;;;2.83;2.63;;;;;;;35.35;19.27;98850.91;4954505;28;42549;-84
2023/05/09 11:22:14;;;;;;;3.13;2.60;;;;;;;35.18;20.24;98846.25;4938559;28;38891;-84
2023/05/09 11:24:52;;;;;;;2.87;2.57;;;;;;;35.02;19.26;98830.63;4938812;28;43273;-84
2023/05/09 11:27:22;;;;;;;4.43;2.70;;;;;;;34.96;19.57;98847.34;4946436;28;43330;-79
2023/05/09 11:29:52;;;;;;;2.97;2.60;;;;;;;34.84;20.11;98834.53;4937571;28;40892;-77
2023/05/09 11:32:21;;;;;;;3.67;3.37;;;;;;;34.85;20.63;98822.44;4953873;28;42515;-80
2023/05/09 11:34:49;;;;;;;4.30;2.40;;;;;;;34.96;21.25;98809.63;4937650;28;41623;-76
2023/05/09 11:37:18;;;;;;;2.57;2.37;;;;;;;35.02;20.75;98813.28;4937807;28;42004;-82
2023/05/09 11:39:58;;;;;;;3.00;2.63;;;;;;;35.20;19.42;98822.06;4938490;28;42506;-84
2023/05/09 11:42:28;;;;;;;2.40;2.20;;;;;;;35.37;19.40;98821.19;4941691;28;38975;-84
2023/05/09 11:44:57;;;;;;;2.23;2.03;;;;;;;35.62;20.48;98785.66;4941532;28;41772;-85
2023/05/09 11:47:27;;;;;;;2.30;2.10;;;;;;;35.87;20.57;98772.16;4954148;28;41719;-84